sensor_id;sensor_type;location;lat;lon;timestamp;P1;durP1;ratioP1;P2;durP2;ratioP2
14098;SDS011;7126;48.458;7.930;2023-11-19T00:00:40;0.30;;;0.30;;
14098;SDS011;7126;48.458;7.930;2023-11-19T00:03:06;0.47;;;0.47;;
14098;SDS011;7126;48.458;7.930;2023-11-19T00:05:31;0.40;;;0.40;;
14098;SDS011;7126;48.458;7.930;2023-11-19T00:07:57;0.30;;;0.30;;
14098;SDS011;7126;48.458;7.930;2023-11-19T00:10:22;0.38;;;0.38;;
14098;SDS011;7126;48.458;7.930;2023-11-19T00:12:48;0.30;;;0.30;;
14098;SDS011;7126;48.458;7.930;2023-11-19T00:15:15;0.50;;;0.50;;
14098;SDS011;7126;48.458;7.930;2023-11-19T00:17:44;0.32;;;0.32;;
14098;SDS011;7126;48.458;7.930;2023-11-19T00:20:11;0.40;;;0.40;;
14098;SDS011;7126;48.458;7.930;2023-11-19T00:22:37;0.40;;;0.40;;
14098;SDS011;7126;48.458;7.930;2023-11-19T00:25:03;0.40;;;0.40;;
14098;SDS011;7126;48.458;7.930;2023-11-19T00:27:29;0.30;;;0.30;;
14098;SDS011;7126;48.458;7.930;2023-11-19T00:29:55;0.30;;;0.30;;
14098;SDS011;7126;48.458;7.930;2023-11-19T00:32:21;0.40;;;0.40;;
14098;SDS011;7126;48.458;7.930;2023-11-19T00:34:47;0.30;;;0.30;;
14098;SDS011;7126;48.458;7.930;2023-11-19T00:37:16;0.45;;;0.45;;
14098;SDS011;7126;48.458;7.930;2023-11-19T00:39:42;0.40;;;0.40;;
14098;SDS011;7126;48.458;7.930;2023-11-19T00:42:11;0.30;;;0.30;;
14098;SDS011;7126;48.458;7.930;2023-11-19T00:44:36;0.30;;;0.30;;
14098;SDS011;7126;48.458;7.930;2023-11-19T00:47:02;0.40;;;0.40;;
14098;SDS011;7126;48.458;7.930;2023-11-19T00:49:28;0.30;;;0.30;;
14098;SDS011;7126;48.458;7.930;2023-11-19T00:51:53;0.20;;;0.20;;
14098;SDS011;7126;48.458;7.930;2023-11-19T00:54:19;0.40;;;0.40;;
14098;SDS011;7126;48.458;7.930;2023-11-19T00:56:45;0.40;;;0.40;;
14098;SDS011;7126;48.458;7.930;2023-11-19T00:59:10;0.40;;;0.40;;
14098;SDS011;7126;48.458;7.930;2023-11-19T01:01:36;0.30;;;0.30;;
14098;SDS011;7126;48.458;7.930;2023-11-19T01:04:02;0.40;;;0.40;;
14098;SDS011;7126;48.458;7.930;2023-11-19T01:06:28;0.40;;;0.40;;
14098;SDS011;7126;48.458;7.930;2023-11-19T01:08:57;0.40;;;0.40;;
14098;SDS011;7126;48.458;7.930;2023-11-19T01:11:23;0.40;;;0.40;;
14098;SDS011;7126;48.458;7.930;2023-11-19T01:13:49;0.40;;;0.40;;
14098;SDS011;7126;48.458;7.930;2023-11-19T01:16:16;0.40;;;0.40;;
14098;SDS011;7126;48.458;7.930;2023-11-19T01:18:42;0.38;;;0.38;;
14098;SDS011;7126;48.458;7.930;2023-11-19T01:21:07;0.40;;;0.40;;
14098;SDS011;7126;48.458;7.930;2023-11-19T01:23:33;0.50;;;0.50;;
14098;SDS011;7126;48.458;7.930;2023-11-19T01:25:59;0.35;;;0.35;;
14098;SDS011;7126;48.458;7.930;2023-11-19T01:28:25;0.40;;;0.40;;
14098;SDS011;7126;48.458;7.930;2023-11-19T01:30:51;0.30;;;0.30;;
14098;SDS011;7126;48.458;7.930;2023-11-19T01:33:17;0.38;;;0.38;;
14098;SDS011;7126;48.458;7.930;2023-11-19T01:35:42;0.40;;;0.40;;
14098;SDS011;7126;48.458;7.930;2023-11-19T01:38:08;0.60;;;0.60;;
14098;SDS011;7126;48.458;7.930;2023-11-19T01:40:33;0.40;;;0.40;;
14098;SDS011;7126;48.458;7.930;2023-11-19T01:43:01;0.40;;;0.40;;
14098;SDS011;7126;48.458;7.930;2023-11-19T01:45:27;0.40;;;0.40;;
14098;SDS011;7126;48.458;7.930;2023-11-19T01:47:55;0.30;;;0.30;;
14098;SDS011;7126;48.458;7.930;2023-11-19T01:50:22;0.40;;;0.40;;
14098;SDS011;7126;48.458;7.930;2023-11-19T01:52:54;0.40;;;0.40;;
14098;SDS011;7126;48.458;7.930;2023-11-19T01:55:22;0.32;;;0.32;;
14098;SDS011;7126;48.458;7.930;2023-11-19T01:57:50;0.40;;;0.40;;
14098;SDS011;7126;48.458;7.930;2023-11-19T02:00:18;0.40;;;0.40;;
14098;SDS011;7126;48.458;7.930;2023-11-19T02:02:44;0.40;;;0.40;;
14098;SDS011;7126;48.458;7.930;2023-11-19T02:05:11;0.50;;;0.50;;
14098;SDS011;7126;48.458;7.930;2023-11-19T02:07:38;0.43;;;0.43;;
14098;SDS011;7126;48.458;7.930;2023-11-19T02:10:04;0.40;;;0.40;;
14098;SDS011;7126;48.458;7.930;2023-11-19T02:12:30;0.40;;;0.40;;
14098;SDS011;7126;48.458;7.930;2023-11-19T02:15:00;0.40;;;0.40;;
14098;SDS011;7126;48.458;7.930;2023-11-19T02:17:27;0.40;;;0.40;;
14098;SDS011;7126;48.458;7.930;2023-11-19T02:19:56;0.40;;;0.40;;
14098;SDS011;7126;48.458;7.930;2023-11-19T02:22:21;0.40;;;0.40;;
14098;SDS011;7126;48.458;7.930;2023-11-19T02:24:47;0.40;;;0.40;;
14098;SDS011;7126;48.458;7.930;2023-11-19T02:27:22;0.40;;;0.40;;
14098;SDS011;7126;48.458;7.930;2023-11-19T02:29:57;0.50;;;0.50;;
14098;SDS011;7126;48.458;7.930;2023-11-19T02:32:23;0.45;;;0.45;;
14098;SDS011;7126;48.458;7.930;2023-11-19T02:34:52;0.40;;;0.40;;
14098;SDS011;7126;48.458;7.930;2023-11-19T02:37:18;0.30;;;0.30;;
14098;SDS011;7126;48.458;7.930;2023-11-19T02:39:44;0.43;;;0.43;;
14098;SDS011;7126;48.458;7.930;2023-11-19T02:42:09;0.47;;;0.47;;
14098;SDS011;7126;48.458;7.930;2023-11-19T02:44:36;0.35;;;0.35;;
14098;SDS011;7126;48.458;7.930;2023-11-19T02:47:01;0.40;;;0.40;;
14098;SDS011;7126;48.458;7.930;2023-11-19T02:49:28;0.40;;;0.40;;
14098;SDS011;7126;48.458;7.930;2023-11-19T02:51:53;0.35;;;0.35;;
14098;SDS011;7126;48.458;7.930;2023-11-19T02:54:19;0.40;;;0.40;;
14098;SDS011;7126;48.458;7.930;2023-11-19T02:56:46;0.40;;;0.40;;
14098;SDS011;7126;48.458;7.930;2023-11-19T02:59:20;0.32;;;0.32;;
14098;SDS011;7126;48.458;7.930;2023-11-19T03:01:52;0.40;;;0.40;;
14098;SDS011;7126;48.458;7.930;2023-11-19T03:04:18;0.38;;;0.38;;
14098;SDS011;7126;48.458;7.930;2023-11-19T03:06:45;0.30;;;0.30;;
14098;SDS011;7126;48.458;7.930;2023-11-19T03:09:10;0.30;;;0.30;;
14098;SDS011;7126;48.458;7.930;2023-11-19T03:11:36;0.30;;;0.30;;
14098;SDS011;7126;48.458;7.930;2023-11-19T03:14:02;0.45;;;0.45;;
14098;SDS011;7126;48.458;7.930;2023-11-19T03:16:31;0.30;;;0.30;;
14098;SDS011;7126;48.458;7.930;2023-11-19T03:18:57;0.25;;;0.25;;
14098;SDS011;7126;48.458;7.930;2023-11-19T03:21:28;0.50;;;0.50;;
14098;SDS011;7126;48.458;7.930;2023-11-19T03:23:54;0.40;;;0.40;;
14098;SDS011;7126;48.458;7.930;2023-11-19T03:26:20;0.50;;;0.50;;
14098;SDS011;7126;48.458;7.930;2023-11-19T03:28:47;0.40;;;0.40;;
14098;SDS011;7126;48.458;7.930;2023-11-19T03:31:13;0.50;;;0.50;;
14098;SDS011;7126;48.458;7.930;2023-11-19T03:33:39;0.40;;;0.40;;
14098;SDS011;7126;48.458;7.930;2023-11-19T03:36:05;0.50;;;0.50;;
14098;SDS011;7126;48.458;7.930;2023-11-19T03:38:31;0.30;;;0.30;;
14098;SDS011;7126;48.458;7.930;2023-11-19T03:40:56;0.40;;;0.40;;
14098;SDS011;7126;48.458;7.930;2023-11-19T03:43:22;0.40;;;0.40;;
14098;SDS011;7126;48.458;7.930;2023-11-19T03:45:47;0.40;;;0.40;;
14098;SDS011;7126;48.458;7.930;2023-11-19T03:48:13;0.40;;;0.40;;
14098;SDS011;7126;48.458;7.930;2023-11-19T03:50:41;0.40;;;0.40;;
14098;SDS011;7126;48.458;7.930;2023-11-19T03:53:06;0.40;;;0.40;;
14098;SDS011;7126;48.458;7.930;2023-11-19T03:55:32;0.40;;;0.40;;
14098;SDS011;7126;48.458;7.930;2023-11-19T03:57:58;0.30;;;0.30;;
14098;SDS011;7126;48.458;7.930;2023-11-19T04:00:23;0.30;;;0.30;;
14098;SDS011;7126;48.458;7.930;2023-11-19T04:02:49;0.40;;;0.40;;
14098;SDS011;7126;48.458;7.930;2023-11-19T04:05:14;0.40;;;0.40;;
14098;SDS011;7126;48.458;7.930;2023-11-19T04:07:40;0.50;;;0.50;;
14098;SDS011;7126;48.458;7.930;2023-11-19T04:10:05;0.30;;;0.30;;
14098;SDS011;7126;48.458;7.930;2023-11-19T04:12:31;0.40;;;0.40;;
14098;SDS011;7126;48.458;7.930;2023-11-19T04:14:57;0.38;;;0.38;;
14098;SDS011;7126;48.458;7.930;2023-11-19T04:17:22;0.40;;;0.40;;
14098;SDS011;7126;48.458;7.930;2023-11-19T04:19:48;0.40;;;0.40;;
14098;SDS011;7126;48.458;7.930;2023-11-19T04:22:13;0.40;;;0.40;;
14098;SDS011;7126;48.458;7.930;2023-11-19T04:24:39;0.40;;;0.40;;
14098;SDS011;7126;48.458;7.930;2023-11-19T04:27:05;0.40;;;0.40;;
14098;SDS011;7126;48.458;7.930;2023-11-19T04:29:31;0.30;;;0.30;;
14098;SDS011;7126;48.458;7.930;2023-11-19T04:31:57;0.30;;;0.30;;
14098;SDS011;7126;48.458;7.930;2023-11-19T04:34:23;0.32;;;0.32;;
14098;SDS011;7126;48.458;7.930;2023-11-19T04:36:49;0.40;;;0.40;;
14098;SDS011;7126;48.458;7.930;2023-11-19T04:39:14;0.40;;;0.40;;
14098;SDS011;7126;48.458;7.930;2023-11-19T04:41:50;0.40;;;0.40;;
14098;SDS011;7126;48.458;7.930;2023-11-19T04:44:19;0.40;;;0.40;;
14098;SDS011;7126;48.458;7.930;2023-11-19T04:46:45;0.40;;;0.40;;
14098;SDS011;7126;48.458;7.930;2023-11-19T04:49:13;0.50;;;0.50;;
14098;SDS011;7126;48.458;7.930;2023-11-19T04:51:43;0.40;;;0.40;;
14098;SDS011;7126;48.458;7.930;2023-11-19T04:54:12;0.40;;;0.40;;
14098;SDS011;7126;48.458;7.930;2023-11-19T04:56:37;0.40;;;0.40;;
14098;SDS011;7126;48.458;7.930;2023-11-19T04:59:05;0.50;;;0.50;;
14098;SDS011;7126;48.458;7.930;2023-11-19T05:01:32;0.40;;;0.40;;
14098;SDS011;7126;48.458;7.930;2023-11-19T05:03:58;0.40;;;0.40;;
14098;SDS011;7126;48.458;7.930;2023-11-19T05:06:27;0.30;;;0.30;;
14098;SDS011;7126;48.458;7.930;2023-11-19T05:08:54;0.50;;;0.50;;
14098;SDS011;7126;48.458;7.930;2023-11-19T05:11:20;0.40;;;0.40;;
14098;SDS011;7126;48.458;7.930;2023-11-19T05:13:46;0.40;;;0.40;;
14098;SDS011;7126;48.458;7.930;2023-11-19T05:16:11;0.47;;;0.47;;
14098;SDS011;7126;48.458;7.930;2023-11-19T05:18:40;0.35;;;0.35;;
14098;SDS011;7126;48.458;7.930;2023-11-19T05:21:06;0.40;;;0.40;;
14098;SDS011;7126;48.458;7.930;2023-11-19T05:23:32;0.40;;;0.40;;
14098;SDS011;7126;48.458;7.930;2023-11-19T05:25:59;0.30;;;0.30;;
14098;SDS011;7126;48.458;7.930;2023-11-19T05:28:25;0.40;;;0.40;;
14098;SDS011;7126;48.458;7.930;2023-11-19T05:30:51;0.32;;;0.32;;
14098;SDS011;7126;48.458;7.930;2023-11-19T05:33:16;0.43;;;0.43;;
14098;SDS011;7126;48.458;7.930;2023-11-19T05:35:42;0.40;;;0.40;;
14098;SDS011;7126;48.458;7.930;2023-11-19T05:38:07;0.40;;;0.40;;
14098;SDS011;7126;48.458;7.930;2023-11-19T05:40:34;0.30;;;0.30;;
14098;SDS011;7126;48.458;7.930;2023-11-19T05:43:00;0.30;;;0.30;;
14098;SDS011;7126;48.458;7.930;2023-11-19T05:45:25;0.40;;;0.40;;
14098;SDS011;7126;48.458;7.930;2023-11-19T05:47:51;0.32;;;0.32;;
14098;SDS011;7126;48.458;7.930;2023-11-19T05:50:17;0.40;;;0.40;;
14098;SDS011;7126;48.458;7.930;2023-11-19T05:52:43;0.40;;;0.40;;
14098;SDS011;7126;48.458;7.930;2023-11-19T05:55:09;0.40;;;0.40;;
14098;SDS011;7126;48.458;7.930;2023-11-19T05:57:35;0.50;;;0.50;;
14098;SDS011;7126;48.458;7.930;2023-11-19T06:00:05;0.40;;;0.40;;
14098;SDS011;7126;48.458;7.930;2023-11-19T06:02:34;0.30;;;0.30;;
14098;SDS011;7126;48.458;7.930;2023-11-19T06:05:00;0.30;;;0.30;;
14098;SDS011;7126;48.458;7.930;2023-11-19T06:07:26;0.30;;;0.30;;
14098;SDS011;7126;48.458;7.930;2023-11-19T06:09:52;0.30;;;0.30;;
14098;SDS011;7126;48.458;7.930;2023-11-19T06:12:18;0.40;;;0.40;;
14098;SDS011;7126;48.458;7.930;2023-11-19T06:14:43;0.40;;;0.40;;
14098;SDS011;7126;48.458;7.930;2023-11-19T06:17:09;0.32;;;0.32;;
14098;SDS011;7126;48.458;7.930;2023-11-19T06:19:36;0.40;;;0.40;;
14098;SDS011;7126;48.458;7.930;2023-11-19T06:22:02;0.47;;;0.47;;
14098;SDS011;7126;48.458;7.930;2023-11-19T06:24:28;0.40;;;0.40;;
14098;SDS011;7126;48.458;7.930;2023-11-19T06:26:54;0.30;;;0.30;;
14098;SDS011;7126;48.458;7.930;2023-11-19T06:29:19;0.40;;;0.40;;
14098;SDS011;7126;48.458;7.930;2023-11-19T06:31:45;0.40;;;0.40;;
14098;SDS011;7126;48.458;7.930;2023-11-19T06:34:13;0.45;;;0.45;;
14098;SDS011;7126;48.458;7.930;2023-11-19T06:36:39;0.40;;;0.40;;
14098;SDS011;7126;48.458;7.930;2023-11-19T06:39:04;0.40;;;0.40;;
14098;SDS011;7126;48.458;7.930;2023-11-19T06:41:30;0.32;;;0.32;;
14098;SDS011;7126;48.458;7.930;2023-11-19T06:43:56;0.40;;;0.40;;
14098;SDS011;7126;48.458;7.930;2023-11-19T06:46:22;0.40;;;0.40;;
14098;SDS011;7126;48.458;7.930;2023-11-19T06:48:47;0.40;;;0.40;;
14098;SDS011;7126;48.458;7.930;2023-11-19T06:51:12;0.40;;;0.40;;
14098;SDS011;7126;48.458;7.930;2023-11-19T06:53:38;0.40;;;0.40;;
14098;SDS011;7126;48.458;7.930;2023-11-19T06:56:19;0.40;;;0.40;;
14098;SDS011;7126;48.458;7.930;2023-11-19T06:58:46;0.40;;;0.40;;
14098;SDS011;7126;48.458;7.930;2023-11-19T07:01:13;0.40;;;0.40;;
14098;SDS011;7126;48.458;7.930;2023-11-19T07:03:40;0.40;;;0.40;;
14098;SDS011;7126;48.458;7.930;2023-11-19T07:06:05;0.47;;;0.47;;
14098;SDS011;7126;48.458;7.930;2023-11-19T07:08:31;0.30;;;0.30;;
14098;SDS011;7126;48.458;7.930;2023-11-19T07:10:56;0.40;;;0.40;;
14098;SDS011;7126;48.458;7.930;2023-11-19T07:13:22;0.40;;;0.40;;
14098;SDS011;7126;48.458;7.930;2023-11-19T07:15:47;0.50;;;0.50;;
14098;SDS011;7126;48.458;7.930;2023-11-19T07:18:13;0.50;;;0.50;;
14098;SDS011;7126;48.458;7.930;2023-11-19T07:20:38;0.47;;;0.47;;
14098;SDS011;7126;48.458;7.930;2023-11-19T07:23:04;0.40;;;0.40;;
14098;SDS011;7126;48.458;7.930;2023-11-19T07:25:31;0.40;;;0.40;;
14098;SDS011;7126;48.458;7.930;2023-11-19T07:27:56;0.50;;;0.50;;
14098;SDS011;7126;48.458;7.930;2023-11-19T07:30:22;0.40;;;0.40;;
14098;SDS011;7126;48.458;7.930;2023-11-19T07:32:47;0.40;;;0.40;;
14098;SDS011;7126;48.458;7.930;2023-11-19T07:35:13;0.50;;;0.50;;
14098;SDS011;7126;48.458;7.930;2023-11-19T07:37:40;0.40;;;0.40;;
14098;SDS011;7126;48.458;7.930;2023-11-19T07:40:07;0.38;;;0.38;;
14098;SDS011;7126;48.458;7.930;2023-11-19T07:42:33;0.60;;;0.60;;
14098;SDS011;7126;48.458;7.930;2023-11-19T07:44:58;0.40;;;0.40;;
14098;SDS011;7126;48.458;7.930;2023-11-19T07:47:24;0.40;;;0.40;;
14098;SDS011;7126;48.458;7.930;2023-11-19T07:49:50;0.50;;;0.50;;
14098;SDS011;7126;48.458;7.930;2023-11-19T07:52:15;0.40;;;0.40;;
14098;SDS011;7126;48.458;7.930;2023-11-19T07:54:41;0.40;;;0.40;;
14098;SDS011;7126;48.458;7.930;2023-11-19T07:57:06;0.30;;;0.30;;
14098;SDS011;7126;48.458;7.930;2023-11-19T07:59:32;0.40;;;0.40;;
14098;SDS011;7126;48.458;7.930;2023-11-19T08:01:57;0.40;;;0.40;;
14098;SDS011;7126;48.458;7.930;2023-11-19T08:04:23;0.40;;;0.40;;
14098;SDS011;7126;48.458;7.930;2023-11-19T08:06:49;0.30;;;0.30;;
14098;SDS011;7126;48.458;7.930;2023-11-19T08:09:14;0.40;;;0.40;;
14098;SDS011;7126;48.458;7.930;2023-11-19T08:11:40;0.40;;;0.40;;
14098;SDS011;7126;48.458;7.930;2023-11-19T08:14:06;0.40;;;0.40;;
14098;SDS011;7126;48.458;7.930;2023-11-19T08:16:31;0.30;;;0.30;;
14098;SDS011;7126;48.458;7.930;2023-11-19T08:18:57;0.30;;;0.30;;
14098;SDS011;7126;48.458;7.930;2023-11-19T08:21:23;0.47;;;0.47;;
14098;SDS011;7126;48.458;7.930;2023-11-19T08:23:48;0.40;;;0.40;;
14098;SDS011;7126;48.458;7.930;2023-11-19T08:26:14;0.32;;;0.32;;
14098;SDS011;7126;48.458;7.930;2023-11-19T08:28:41;0.40;;;0.40;;
14098;SDS011;7126;48.458;7.930;2023-11-19T08:31:06;0.50;;;0.50;;
14098;SDS011;7126;48.458;7.930;2023-11-19T08:33:32;0.32;;;0.32;;
14098;SDS011;7126;48.458;7.930;2023-11-19T08:35:57;0.40;;;0.40;;
14098;SDS011;7126;48.458;7.930;2023-11-19T08:38:23;0.40;;;0.40;;
14098;SDS011;7126;48.458;7.930;2023-11-19T08:40:50;0.40;;;0.40;;
14098;SDS011;7126;48.458;7.930;2023-11-19T08:43:15;0.40;;;0.40;;
14098;SDS011;7126;48.458;7.930;2023-11-19T08:45:41;0.40;;;0.40;;
14098;SDS011;7126;48.458;7.930;2023-11-19T08:48:06;0.40;;;0.40;;
14098;SDS011;7126;48.458;7.930;2023-11-19T08:50:32;0.40;;;0.40;;
14098;SDS011;7126;48.458;7.930;2023-11-19T08:52:57;0.40;;;0.40;;
14098;SDS011;7126;48.458;7.930;2023-11-19T08:55:23;0.40;;;0.40;;
14098;SDS011;7126;48.458;7.930;2023-11-19T08:57:48;0.40;;;0.40;;
14098;SDS011;7126;48.458;7.930;2023-11-19T09:00:14;0.45;;;0.45;;
14098;SDS011;7126;48.458;7.930;2023-11-19T09:02:40;0.40;;;0.40;;
14098;SDS011;7126;48.458;7.930;2023-11-19T09:05:05;0.50;;;0.50;;
14098;SDS011;7126;48.458;7.930;2023-11-19T09:07:32;0.40;;;0.40;;
14098;SDS011;7126;48.458;7.930;2023-11-19T09:09:58;0.60;;;0.60;;
14098;SDS011;7126;48.458;7.930;2023-11-19T09:12:24;0.47;;;0.47;;
14098;SDS011;7126;48.458;7.930;2023-11-19T09:14:49;0.40;;;0.40;;
14098;SDS011;7126;48.458;7.930;2023-11-19T09:17:15;0.40;;;0.40;;
14098;SDS011;7126;48.458;7.930;2023-11-19T09:19:41;0.43;;;0.43;;
14098;SDS011;7126;48.458;7.930;2023-11-19T09:22:06;0.40;;;0.40;;
14098;SDS011;7126;48.458;7.930;2023-11-19T09:24:32;0.50;;;0.50;;
14098;SDS011;7126;48.458;7.930;2023-11-19T09:26:58;0.50;;;0.50;;
14098;SDS011;7126;48.458;7.930;2023-11-19T09:29:25;0.40;;;0.40;;
14098;SDS011;7126;48.458;7.930;2023-11-19T09:31:50;0.30;;;0.30;;
14098;SDS011;7126;48.458;7.930;2023-11-19T09:34:16;0.43;;;0.43;;
14098;SDS011;7126;48.458;7.930;2023-11-19T09:36:42;0.40;;;0.40;;
14098;SDS011;7126;48.458;7.930;2023-11-19T09:39:09;0.50;;;0.50;;
14098;SDS011;7126;48.458;7.930;2023-11-19T09:41:35;0.40;;;0.40;;
14098;SDS011;7126;48.458;7.930;2023-11-19T09:44:01;0.40;;;0.40;;
14098;SDS011;7126;48.458;7.930;2023-11-19T09:46:26;0.40;;;0.40;;
14098;SDS011;7126;48.458;7.930;2023-11-19T09:48:53;0.40;;;0.40;;
14098;SDS011;7126;48.458;7.930;2023-11-19T09:51:19;0.40;;;0.40;;
14098;SDS011;7126;48.458;7.930;2023-11-19T09:53:45;0.40;;;0.40;;
14098;SDS011;7126;48.458;7.930;2023-11-19T09:56:11;0.40;;;0.40;;
14098;SDS011;7126;48.458;7.930;2023-11-19T09:58:37;0.30;;;0.30;;
14098;SDS011;7126;48.458;7.930;2023-11-19T10:01:03;0.40;;;0.40;;
14098;SDS011;7126;48.458;7.930;2023-11-19T10:03:35;0.40;;;0.40;;
14098;SDS011;7126;48.458;7.930;2023-11-19T10:06:03;0.45;;;0.45;;
14098;SDS011;7126;48.458;7.930;2023-11-19T10:08:29;0.50;;;0.50;;
14098;SDS011;7126;48.458;7.930;2023-11-19T10:10:55;0.50;;;0.50;;
14098;SDS011;7126;48.458;7.930;2023-11-19T10:13:25;0.45;;;0.45;;
14098;SDS011;7126;48.458;7.930;2023-11-19T10:15:52;0.40;;;0.40;;
14098;SDS011;7126;48.458;7.930;2023-11-19T10:18:18;0.40;;;0.40;;
14098;SDS011;7126;48.458;7.930;2023-11-19T10:20:43;0.30;;;0.30;;
14098;SDS011;7126;48.458;7.930;2023-11-19T10:23:09;0.50;;;0.50;;
14098;SDS011;7126;48.458;7.930;2023-11-19T10:25:36;0.60;;;0.60;;
14098;SDS011;7126;48.458;7.930;2023-11-19T10:28:01;0.60;;;0.60;;
14098;SDS011;7126;48.458;7.930;2023-11-19T10:30:28;0.50;;;0.50;;
14098;SDS011;7126;48.458;7.930;2023-11-19T10:35:33;0.50;;;0.50;;
14098;SDS011;7126;48.458;7.930;2023-11-19T10:38:00;0.50;;;0.50;;
14098;SDS011;7126;48.458;7.930;2023-11-19T10:40:39;0.40;;;0.40;;
14098;SDS011;7126;48.458;7.930;2023-11-19T10:43:05;0.60;;;0.60;;
14098;SDS011;7126;48.458;7.930;2023-11-19T10:45:32;0.47;;;0.47;;
14098;SDS011;7126;48.458;7.930;2023-11-19T10:47:58;0.40;;;0.40;;
14098;SDS011;7126;48.458;7.930;2023-11-19T10:50:24;0.50;;;0.50;;
14098;SDS011;7126;48.458;7.930;2023-11-19T10:52:51;0.50;;;0.50;;
14098;SDS011;7126;48.458;7.930;2023-11-19T10:55:22;0.30;;;0.30;;
14098;SDS011;7126;48.458;7.930;2023-11-19T10:58:12;0.40;;;0.40;;
14098;SDS011;7126;48.458;7.930;2023-11-19T11:03:19;0.52;;;0.52;;
14098;SDS011;7126;48.458;7.930;2023-11-19T11:05:49;0.40;;;0.40;;
14098;SDS011;7126;48.458;7.930;2023-11-19T11:08:16;0.43;;;0.43;;
14098;SDS011;7126;48.458;7.930;2023-11-19T11:10:43;0.40;;;0.40;;
14098;SDS011;7126;48.458;7.930;2023-11-19T11:13:16;0.40;;;0.40;;
14098;SDS011;7126;48.458;7.930;2023-11-19T11:15:43;0.43;;;0.43;;
14098;SDS011;7126;48.458;7.930;2023-11-19T11:18:11;0.40;;;0.40;;
14098;SDS011;7126;48.458;7.930;2023-11-19T11:20:38;0.40;;;0.40;;
14098;SDS011;7126;48.458;7.930;2023-11-19T11:23:21;0.50;;;0.50;;
14098;SDS011;7126;48.458;7.930;2023-11-19T11:34:20;0.50;;;0.50;;
14098;SDS011;7126;48.458;7.930;2023-11-19T11:36:59;0.40;;;0.40;;
14098;SDS011;7126;48.458;7.930;2023-11-19T11:39:26;0.50;;;0.50;;
14098;SDS011;7126;48.458;7.930;2023-11-19T11:45:00;0.32;;;0.32;;
14098;SDS011;7126;48.458;7.930;2023-11-19T11:50:08;0.43;;;0.43;;
14098;SDS011;7126;48.458;7.930;2023-11-19T11:53:09;0.50;;;0.50;;
14098;SDS011;7126;48.458;7.930;2023-11-19T11:55:26;0.50;;;0.50;;
14098;SDS011;7126;48.458;7.930;2023-11-19T11:58:11;0.47;;;0.47;;
14098;SDS011;7126;48.458;7.930;2023-11-19T12:00:40;0.40;;;0.40;;
14098;SDS011;7126;48.458;7.930;2023-11-19T12:03:10;0.50;;;0.50;;
14098;SDS011;7126;48.458;7.930;2023-11-19T12:05:43;0.40;;;0.40;;
14098;SDS011;7126;48.458;7.930;2023-11-19T12:08:10;0.40;;;0.40;;
14098;SDS011;7126;48.458;7.930;2023-11-19T12:10:38;0.40;;;0.40;;
14098;SDS011;7126;48.458;7.930;2023-11-19T12:13:10;0.63;;;0.63;;
14098;SDS011;7126;48.458;7.930;2023-11-19T12:18:22;0.40;;;0.40;;
14098;SDS011;7126;48.458;7.930;2023-11-19T12:20:48;0.80;;;0.80;;
14098;SDS011;7126;48.458;7.930;2023-11-19T12:23:14;0.40;;;0.40;;
14098;SDS011;7126;48.458;7.930;2023-11-19T12:25:40;0.40;;;0.40;;
14098;SDS011;7126;48.458;7.930;2023-11-19T12:28:06;0.50;;;0.50;;
14098;SDS011;7126;48.458;7.930;2023-11-19T12:30:37;0.40;;;0.40;;
14098;SDS011;7126;48.458;7.930;2023-11-19T12:33:07;0.40;;;0.40;;
14098;SDS011;7126;48.458;7.930;2023-11-19T12:35:34;0.50;;;0.50;;
14098;SDS011;7126;48.458;7.930;2023-11-19T12:38:19;0.40;;;0.40;;
14098;SDS011;7126;48.458;7.930;2023-11-19T12:40:45;0.55;;;0.55;;
14098;SDS011;7126;48.458;7.930;2023-11-19T12:43:20;0.43;;;0.43;;
14098;SDS011;7126;48.458;7.930;2023-11-19T12:45:47;0.50;;;0.50;;
14098;SDS011;7126;48.458;7.930;2023-11-19T12:48:13;0.50;;;0.50;;
14098;SDS011;7126;48.458;7.930;2023-11-19T12:50:53;0.43;;;0.43;;
14098;SDS011;7126;48.458;7.930;2023-11-19T12:53:21;0.50;;;0.50;;
14098;SDS011;7126;48.458;7.930;2023-11-19T12:55:48;0.60;;;0.60;;
14098;SDS011;7126;48.458;7.930;2023-11-19T12:58:33;0.60;;;0.60;;
14098;SDS011;7126;48.458;7.930;2023-11-19T13:01:07;0.50;;;0.50;;
14098;SDS011;7126;48.458;7.930;2023-11-19T13:03:35;0.60;;;0.60;;
14098;SDS011;7126;48.458;7.930;2023-11-19T13:06:05;0.80;;;0.80;;
14098;SDS011;7126;48.458;7.930;2023-11-19T13:08:39;0.52;;;0.52;;
14098;SDS011;7126;48.458;7.930;2023-11-19T13:11:06;0.40;;;0.40;;
14098;SDS011;7126;48.458;7.930;2023-11-19T13:13:33;0.50;;;0.50;;
14098;SDS011;7126;48.458;7.930;2023-11-19T13:16:18;0.60;;;0.60;;
14098;SDS011;7126;48.458;7.930;2023-11-19T13:18:44;0.40;;;0.40;;
14098;SDS011;7126;48.458;7.930;2023-11-19T13:21:09;0.50;;;0.50;;
14098;SDS011;7126;48.458;7.930;2023-11-19T13:23:35;0.55;;;0.55;;
14098;SDS011;7126;48.458;7.930;2023-11-19T13:26:00;0.50;;;0.50;;
14098;SDS011;7126;48.458;7.930;2023-11-19T13:28:26;0.50;;;0.50;;
14098;SDS011;7126;48.458;7.930;2023-11-19T13:30:52;4.70;;;1.23;;
14098;SDS011;7126;48.458;7.930;2023-11-19T13:33:18;0.70;;;0.70;;
14098;SDS011;7126;48.458;7.930;2023-11-19T13:35:44;0.70;;;0.70;;
14098;SDS011;7126;48.458;7.930;2023-11-19T13:38:10;0.70;;;0.70;;
14098;SDS011;7126;48.458;7.930;2023-11-19T13:40:36;0.77;;;0.77;;
14098;SDS011;7126;48.458;7.930;2023-11-19T13:43:02;0.90;;;0.90;;
14098;SDS011;7126;48.458;7.930;2023-11-19T13:45:27;1.10;;;1.10;;
14098;SDS011;7126;48.458;7.930;2023-11-19T13:47:53;0.98;;;0.98;;
14098;SDS011;7126;48.458;7.930;2023-11-19T13:50:18;0.80;;;0.80;;
14098;SDS011;7126;48.458;7.930;2023-11-19T13:52:45;1.08;;;1.08;;
14098;SDS011;7126;48.458;7.930;2023-11-19T13:55:12;1.20;;;1.20;;
14098;SDS011;7126;48.458;7.930;2023-11-19T13:57:38;1.17;;;1.17;;
14098;SDS011;7126;48.458;7.930;2023-11-19T14:00:05;1.88;;;1.88;;
14098;SDS011;7126;48.458;7.930;2023-11-19T14:02:41;1.42;;;1.42;;
14098;SDS011;7126;48.458;7.930;2023-11-19T14:05:07;2.83;;;2.72;;
14098;SDS011;7126;48.458;7.930;2023-11-19T14:07:34;1.13;;;1.13;;
14098;SDS011;7126;48.458;7.930;2023-11-19T14:10:00;0.80;;;0.80;;
14098;SDS011;7126;48.458;7.930;2023-11-19T14:12:25;0.77;;;0.77;;
14098;SDS011;7126;48.458;7.930;2023-11-19T14:14:51;0.80;;;0.80;;
14098;SDS011;7126;48.458;7.930;2023-11-19T14:17:17;0.73;;;0.73;;
14098;SDS011;7126;48.458;7.930;2023-11-19T14:19:43;0.55;;;0.55;;
14098;SDS011;7126;48.458;7.930;2023-11-19T14:22:09;0.70;;;0.70;;
14098;SDS011;7126;48.458;7.930;2023-11-19T14:24:35;0.68;;;0.68;;
14098;SDS011;7126;48.458;7.930;2023-11-19T14:27:01;0.60;;;0.60;;
14098;SDS011;7126;48.458;7.930;2023-11-19T14:29:27;0.68;;;0.68;;
14098;SDS011;7126;48.458;7.930;2023-11-19T14:31:56;0.60;;;0.60;;
14098;SDS011;7126;48.458;7.930;2023-11-19T14:34:22;0.60;;;0.60;;
14098;SDS011;7126;48.458;7.930;2023-11-19T14:36:47;0.60;;;0.60;;
14098;SDS011;7126;48.458;7.930;2023-11-19T14:39:14;0.50;;;0.50;;
14098;SDS011;7126;48.458;7.930;2023-11-19T14:41:39;0.75;;;0.75;;
14098;SDS011;7126;48.458;7.930;2023-11-19T14:44:05;0.65;;;0.65;;
14098;SDS011;7126;48.458;7.930;2023-11-19T14:46:30;0.60;;;0.60;;
14098;SDS011;7126;48.458;7.930;2023-11-19T14:48:56;0.50;;;0.50;;
14098;SDS011;7126;48.458;7.930;2023-11-19T14:51:22;0.60;;;0.60;;
14098;SDS011;7126;48.458;7.930;2023-11-19T14:53:47;0.50;;;0.50;;
14098;SDS011;7126;48.458;7.930;2023-11-19T14:56:13;0.90;;;0.90;;
14098;SDS011;7126;48.458;7.930;2023-11-19T14:58:38;0.82;;;0.82;;
14098;SDS011;7126;48.458;7.930;2023-11-19T15:01:04;0.50;;;0.50;;
14098;SDS011;7126;48.458;7.930;2023-11-19T15:03:32;0.70;;;0.70;;
14098;SDS011;7126;48.458;7.930;2023-11-19T15:05:58;0.60;;;0.60;;
14098;SDS011;7126;48.458;7.930;2023-11-19T15:08:23;0.60;;;0.60;;
14098;SDS011;7126;48.458;7.930;2023-11-19T15:10:49;0.60;;;0.60;;
14098;SDS011;7126;48.458;7.930;2023-11-19T15:13:15;0.50;;;0.50;;
14098;SDS011;7126;48.458;7.930;2023-11-19T15:15:40;0.60;;;0.60;;
14098;SDS011;7126;48.458;7.930;2023-11-19T15:18:06;0.50;;;0.50;;
14098;SDS011;7126;48.458;7.930;2023-11-19T15:20:32;0.30;;;0.30;;